Time;durP1;ratioP1;P1;durP2;ratioP2;P2;SDS_P1;SDS_P2;PMS_P1;PMS_P2;Temp;Humidity;BMP_temperature;BMP_pressure;BME280_temperature;BME280_humidity;BME280_pressure;Samples;Min_cycle;Max_cycle;Signal;HPM_P1;HPM_P2
2022/04/27 00:04:14;;;;;;;12.00;8.50;;;11.30;90.70;;;;;;10270110;28;20649;-85
2022/04/27 00:09:16;;;;;;;17.00;10.17;;;10.80;91.60;;;;;;10255761;28;20258;-85
2022/04/27 00:14:20;;;;;;;25.63;14.67;;;11.30;91.70;;;;;;10245737;29;20230;-85
2022/04/27 00:19:27;;;;;;;33.37;18.33;;;11.10;90.90;;;;;;10275935;28;20280;-85
2022/04/27 00:24:29;;;;;;;18.13;13.30;;;10.70;90.50;;;;;;10271855;28;20659;-85
2022/04/27 00:29:33;;;;;;;18.80;12.43;;;8.80;91.40;;;;;;10261503;28;20670;-85
2022/04/27 00:34:35;;;;;;;20.20;11.67;;;8.90;94.40;;;;;;10254101;29;20238;-85
2022/04/27 00:39:39;;;;;;;10.77;7.40;;;7.90;98.30;;;;;;10286140;28;20241;-85
2022/04/27 00:44:43;;;;;;;13.13;9.10;;;9.90;98.70;;;;;;10268166;28;20240;-85
2022/04/27 00:49:48;;;;;;;12.77;7.63;;;10.30;95.90;;;;;;10236220;28;20261;-85
2022/04/27 00:54:53;;;;;;;13.27;8.70;;;10.90;94.90;;;;;;10250606;29;20242;-85
2022/04/27 00:59:56;;;;;;;15.97;10.00;;;11.00;93.60;;;;;;10286550;28;20280;-85
2022/04/27 01:04:59;;;;;;;9.97;7.33;;;10.20;93.40;;;;;;10274559;28;20249;-85
2022/04/27 01:10:02;;;;;;;15.97;9.50;;;10.40;95.40;;;;;;10273744;28;20311;-85
2022/04/27 01:15:05;;;;;;;12.70;8.50;;;10.10;94.50;;;;;;10275171;28;20427;-85
2022/04/27 01:20:11;;;;;;;15.77;9.60;;;10.80;94.20;;;;;;10237125;29;20269;-86
2022/04/27 01:25:13;;;;;;;14.70;10.27;;;10.80;93.00;;;;;;10235277;28;20267;-85
2022/04/27 01:30:16;;;;;;;12.73;7.60;;;10.00;91.60;;;;;;10287556;28;20223;-85
2022/04/27 01:35:18;;;;;;;16.60;9.33;;;10.80;94.70;;;;;;10289852;28;20292;-85
2022/04/27 01:40:21;;;;;;;9.30;6.57;;;11.30;91.70;;;;;;10272400;28;20668;-85
2022/04/27 01:45:23;;;;;;;8.20;5.73;;;11.20;93.30;;;;;;10289055;28;20245;-85
2022/04/27 01:50:26;;;;;;;13.03;8.80;;;11.90;92.10;;;;;;10289777;28;20269;-85
2022/04/27 01:55:29;;;;;;;11.50;7.87;;;11.90;90.70;;;;;;10288402;28;20291;-85
2022/04/27 02:00:33;;;;;;;12.17;7.37;;;11.80;91.40;;;;;;10232834;29;20296;-85
2022/04/27 02:05:38;;;;;;;12.70;8.43;;;11.80;91.00;;;;;;10248301;29;20277;-85
2022/04/27 02:10:42;;;;;;;10.97;7.20;;;11.60;91.20;;;;;;10272141;28;20722;-85
2022/04/27 02:15:45;;;;;;;11.87;6.90;;;11.30;91.70;;;;;;10270897;28;20206;-86
2022/04/27 02:20:57;;;;;;;10.17;6.53;;;10.80;92.90;;;;;;10247569;29;20361;-85
2022/04/27 02:26:02;;;;;;;9.07;6.67;;;11.10;92.50;;;;;;10260265;28;20241;-85
2022/04/27 02:31:04;;;;;;;12.87;8.87;;;11.00;92.40;;;;;;10247330;29;20265;-85
2022/04/27 02:36:08;;;;;;;13.83;7.70;;;10.30;91.80;;;;;;10250830;28;20626;-85
2022/04/27 02:41:11;;;;;;;8.97;6.23;;;10.70;94.30;;;;;;10270974;28;20245;-85
2022/04/27 02:46:14;;;;;;;11.70;9.33;;;11.30;92.80;;;;;;10285314;28;20561;-85
2022/04/27 02:56:38;;;;;;;9.63;7.47;;;11.10;93.20;;;;;;10153275;29;20279;-85
2022/04/27 03:01:41;;;;;;;10.37;7.13;;;11.10;92.60;;;;;;10202944;29;20317;-85
2022/04/27 03:06:44;;;;;;;11.00;7.13;;;10.60;93.40;;;;;;10206486;29;20211;-85
2022/04/27 03:11:46;;;;;;;7.90;5.87;;;10.60;93.40;;;;;;10191192;29;20266;-85
2022/04/27 03:17:09;;;;;;;10.43;6.77;;;10.90;94.10;;;;;;10178263;29;20214;-85
2022/04/27 03:22:11;;;;;;;15.10;9.10;;;11.30;92.60;;;;;;10174460;29;20313;-85
2022/04/27 03:27:14;;;;;;;11.90;7.70;;;11.30;91.70;;;;;;10180178;29;20672;-85
2022/04/27 03:32:17;;;;;;;8.63;6.37;;;11.10;92.30;;;;;;10150818;29;20895;-85
2022/04/27 03:37:26;;;;;;;12.40;8.47;;;11.20;92.80;;;;;;10180725;29;20317;-85
2022/04/27 03:42:29;;;;;;;12.67;8.90;;;11.20;91.70;;;;;;10206802;29;20285;-85
2022/04/27 03:47:34;;;;;;;12.63;9.37;;;11.30;91.90;;;;;;10169232;29;20284;-85
2022/04/27 03:52:37;;;;;;;8.97;7.40;;;10.80;93.20;;;;;;10187319;29;20791;-85
2022/04/27 03:57:40;;;;;;;10.60;7.80;;;11.20;92.60;;;;;;10244371;28;20269;-85
2022/04/27 04:02:43;;;;;;;9.33;7.10;;;11.30;92.40;;;;;;10253183;29;20241;-85
2022/04/27 04:07:46;;;;;;;11.87;7.87;;;11.20;92.10;;;;;;10254494;28;20316;-85
2022/04/27 04:12:49;;;;;;;10.47;8.27;;;11.20;92.20;;;;;;10253097;29;20289;-85
2022/04/27 04:18:30;;;;;;;10.90;7.17;;;10.90;92.20;;;;;;10171405;29;20271;-86
2022/04/27 04:23:56;;;;;;;7.10;5.20;;;11.30;92.90;;;;;;10173166;29;20247;-85
2022/04/27 04:28:58;;;;;;;8.30;6.27;;;12.10;91.40;;;;;;10172212;29;20251;-85
2022/04/27 04:34:01;;;;;;;14.93;9.37;;;12.40;90.50;;;;;;10153670;29;20263;-85
2022/04/27 04:39:03;;;;;;;16.80;9.70;;;12.20;89.90;;;;;;10163910;29;20256;-85
2022/04/27 04:44:11;;;;;;;13.13;9.70;;;11.80;90.30;;;;;;10165353;29;20306;-85
2022/04/27 04:49:32;;;;;;;19.63;9.77;;;11.40;91.00;;;;;;10200687;29;20222;-86
2022/04/27 04:54:53;;;;;;;16.07;11.07;;;11.00;92.50;;;;;;10229576;29;20269;-85
2022/04/27 05:00:28;;;;;;;14.10;8.03;;;10.90;91.90;;;;;;10128969;29;20252;-85
2022/04/27 05:05:39;;;;;;;19.77;9.93;;;11.10;92.90;;;;;;10149344;29;20800;-85
2022/04/27 05:11:04;;;;;;;14.13;10.83;;;11.60;91.80;;;;;;10138551;29;20267;-85
2022/04/27 05:16:20;;;;;;;26.40;12.53;;;11.50;91.30;;;;;;10147116;29;20235;-85
2022/04/27 05:21:52;;;;;;;30.17;15.57;;;11.10;92.00;;;;;;10052757;29;20241;-85
2022/04/27 05:27:24;;;;;;;26.10;12.97;;;11.10;92.10;;;;;;10032462;29;20684;-85
2022/04/27 05:32:59;;;;;;;27.47;16.33;;;11.50;91.50;;;;;;10048442;29;20694;-87
2022/04/27 05:38:21;;;;;;;25.13;15.87;;;9.50;91.90;;;;;;10050369;29;20300;-87
2022/04/27 05:43:50;;;;;;;55.93;19.30;;;8.20;99.90;;;;;;10005012;29;20263;-87
2022/04/27 05:49:10;;;;;;;37.90;19.33;;;8.10;99.90;;;;;;10050185;29;20261;-87
2022/04/27 05:54:28;;;;;;;12.90;9.20;;;8.10;99.90;;;;;;10012916;29;20266;-85
2022/04/27 05:59:54;;;;;;;21.63;11.30;;;10.70;99.90;;;;;;10051180;29;20290;-92
2022/04/27 06:05:17;;;;;;;24.67;12.77;;;12.30;94.60;;;;;;10058882;29;20250;-92
2022/04/27 06:10:21;;;;;;;29.30;14.40;;;12.40;89.40;;;;;;10205538;29;20244;-92
2022/04/27 06:15:31;;;;;;;16.13;11.90;;;11.00;92.10;;;;;;10188438;29;20684;-92
2022/04/27 06:20:36;;;;;;;20.00;13.03;;;12.10;90.40;;;;;;10216538;28;20289;-93
2022/04/27 06:25:41;;;;;;;18.87;12.33;;;12.50;87.10;;;;;;10195481;29;20317;-92
2022/04/27 06:30:46;;;;;;;28.63;14.57;;;12.60;86.90;;;;;;10202093;29;20317;-93
2022/04/27 06:35:50;;;;;;;22.93;14.17;;;12.60;84.60;;;;;;10182157;29;20242;-93
2022/04/27 06:40:53;;;;;;;28.90;14.80;;;12.80;85.30;;;;;;10186895;29;20274;-92
2022/04/27 06:45:58;;;;;;;25.70;16.03;;;12.50;84.40;;;;;;10178379;29;20286;-93
2022/04/27 06:51:33;;;;;;;21.57;12.50;;;11.50;85.30;;;;;;10012906;29;20286;-93
2022/04/27 06:57:14;;;;;;;28.67;17.17;;;11.50;90.20;;;;;;9926859;29;20675;-92
2022/04/27 07:02:33;;;;;;;22.47;14.20;;;11.90;87.40;;;;;;9936651;29;20304;-92
2022/04/27 07:07:35;;;;;;;19.03;12.93;;;12.40;88.30;;;;;;9922543;29;20449;-92
2022/04/27 07:12:38;;;;;;;18.97;13.10;;;12.60;84.30;;;;;;9954924;29;20259;-91
2022/04/27 07:17:41;;;;;;;25.43;14.30;;;13.20;83.90;;;;;;9947721;29;20793;-91
2022/04/27 07:22:44;;;;;;;19.83;10.07;;;13.50;82.60;;;;;;9920159;29;20288;-92
2022/04/27 07:27:46;;;;;;;25.30;14.43;;;13.60;82.90;;;;;;10094829;29;20207;-91
2022/04/27 07:32:50;;;;;;;22.17;13.93;;;14.10;79.80;;;;;;10167312;29;20736;-91
2022/04/27 07:37:52;;;;;;;24.07;12.23;;;14.10;80.60;;;;;;10152890;29;20243;-92
2022/04/27 07:42:55;;;;;;;16.47;11.10;;;14.30;77.80;;;;;;10152787;29;20275;-92
2022/04/27 07:47:57;;;;;;;18.37;11.10;;;14.40;77.50;;;;;;10152735;29;20259;-92
2022/04/27 07:53:00;;;;;;;18.53;11.70;;;14.40;79.20;;;;;;10151383;29;20322;-92
2022/04/27 07:58:03;;;;;;;15.23;10.97;;;14.80;76.90;;;;;;10152243;29;20590;-93
2022/04/27 08:03:05;;;;;;;16.07;9.30;;;14.70;77.00;;;;;;10167815;29;20670;-91
2022/04/27 08:08:11;;;;;;;20.17;10.87;;;14.80;78.00;;;;;;10168801;29;20251;-93
2022/04/27 08:13:18;;;;;;;19.63;11.37;;;15.20;76.60;;;;;;10152338;29;20272;-93
2022/04/27 08:18:20;;;;;;;15.70;10.30;;;15.00;75.50;;;;;;10167719;29;20252;-92
2022/04/27 08:23:24;;;;;;;19.93;11.93;;;14.60;77.70;;;;;;10152453;29;20218;-93
2022/04/27 08:28:27;;;;;;;17.93;8.83;;;14.70;77.10;;;;;;10169394;29;20212;-92
2022/04/27 08:33:30;;;;;;;24.37;12.33;;;15.40;75.80;;;;;;10152568;29;20583;-93
2022/04/27 08:38:34;;;;;;;13.27;9.73;;;15.80;75.00;;;;;;10151276;29;20686;-92
2022/04/27 08:43:36;;;;;;;15.07;10.73;;;16.20;72.90;;;;;;10168540;29;20748;-92
2022/04/27 08:48:39;;;;;;;12.33;9.67;;;15.80;70.40;;;;;;10158100;29;20217;-92
2022/04/27 08:53:42;;;;;;;16.50;11.33;;;15.80;73.80;;;;;;10173663;29;20415;-93
2022/04/27 08:58:45;;;;;;;12.47;8.43;;;16.00;71.70;;;;;;10174227;29;20212;-92
2022/04/27 09:03:47;;;;;;;11.90;8.07;;;15.60;74.00;;;;;;10158300;29;20218;-93
2022/04/27 09:08:55;;;;;;;15.20;10.00;;;16.30;72.30;;;;;;10158196;29;20324;-94
2022/04/27 09:14:02;;;;;;;14.43;9.97;;;16.20;69.70;;;;;;10173882;29;20786;-92
2022/04/27 09:24:50;;;;;;;18.10;10.33;;;16.10;70.10;;;;;;10173704;29;20301;-93
2022/04/27 09:30:10;;;;;;;18.23;8.43;;;16.20;67.60;;;;;;10174062;29;20253;-94
2022/04/27 09:35:13;;;;;;;17.63;11.07;;;16.70;70.10;;;;;;10172568;29;20290;-93
2022/04/27 09:40:16;;;;;;;14.07;9.77;;;17.00;69.10;;;;;;10141674;29;20267;-92
2022/04/27 09:45:26;;;;;;;15.73;8.70;;;16.80;67.20;;;;;;10156263;29;20216;-92
2022/04/27 09:50:48;;;;;;;12.40;6.37;;;16.70;62.10;;;;;;10160362;29;20235;-93
2022/04/27 09:55:54;;;;;;;9.60;4.30;;;16.90;61.80;;;;;;10195165;29;20266;-93
2022/04/27 10:01:01;;;;;;;12.10;6.30;;;17.10;55.80;;;;;;10196680;29;20275;-92
2022/04/27 10:06:04;;;;;;;6.47;4.73;;;17.10;65.70;;;;;;10211676;29;20301;-93
2022/04/27 10:11:09;;;;;;;8.93;7.20;;;16.70;54.40;;;;;;10211270;29;20286;-92
2022/04/27 10:16:15;;;;;;;11.10;6.87;;;17.30;66.30;;;;;;10194830;29;20286;-94
2022/04/27 10:21:43;;;;;;;14.33;6.83;;;17.30;63.10;;;;;;10195787;29;20270;-92
2022/04/27 10:26:45;;;;;;;5.70;5.00;;;17.50;64.80;;;;;;10194455;29;20278;-93
2022/04/27 10:31:54;;;;;;;5.67;4.37;;;17.40;60.00;;;;;;10194160;29;20704;-93
2022/04/27 10:36:57;;;;;;;5.87;3.90;;;17.50;56.20;;;;;;10194559;29;20249;-92
2022/04/27 10:42:03;;;;;;;5.53;4.50;;;17.50;55.80;;;;;;10194463;29;20219;-94
2022/04/27 10:47:16;;;;;;;8.57;6.67;;;16.90;55.70;;;;;;10194930;29;20567;-94
2022/04/27 10:52:25;;;;;;;8.40;6.70;;;17.10;63.10;;;;;;10193995;29;20779;-95
2022/04/27 10:57:30;;;;;;;8.67;6.20;;;16.90;57.50;;;;;;10194819;29;20744;-93
2022/04/27 11:02:44;;;;;;;5.67;5.07;;;16.80;57.50;;;;;;10194951;29;20215;-93
2022/04/27 11:07:56;;;;;;;13.80;5.47;;;16.20;59.50;;;;;;10194230;29;20214;-94
2022/04/27 11:13:01;;;;;;;5.07;4.47;;;16.20;60.90;;;;;;10177882;29;20230;-93
2022/04/27 11:18:04;;;;;;;11.70;7.23;;;16.50;58.70;;;;;;10193935;29;20215;-94
2022/04/27 11:23:19;;;;;;;7.67;5.10;;;16.70;67.90;;;;;;10193961;29;20274;-93
2022/04/27 11:28:22;;;;;;;8.73;5.10;;;15.90;58.30;;;;;;10193681;29;20215;-93
2022/04/27 11:33:24;;;;;;;8.30;5.20;;;16.10;55.40;;;;;;10209102;29;20266;-93
2022/04/27 11:38:37;;;;;;;9.70;5.37;;;16.20;56.80;;;;;;10192743;29;20204;-93
2022/04/27 11:43:40;;;;;;;10.37;5.30;;;16.00;56.10;;;;;;10193661;29;20210;-94
2022/04/27 11:48:49;;;;;;;6.53;4.77;;;15.90;56.30;;;;;;10193399;29;20267;-93
2022/04/27 11:53:52;;;;;;;7.93;4.90;;;16.20;57.40;;;;;;10168889;29;20267;-93
2022/04/27 11:59:06;;;;;;;13.37;5.77;;;16.30;59.60;;;;;;10170337;29;20232;-93
2022/04/27 12:04:11;;;;;;;8.40;6.07;;;16.40;55.90;;;;;;10169756;29;20220;-92
2022/04/27 12:09:18;;;;;;;9.47;5.50;;;16.80;58.00;;;;;;10168588;29;20306;-93
2022/04/27 12:14:20;;;;;;;8.30;6.17;;;16.80;55.70;;;;;;10169770;29;20279;-92
2022/04/27 12:19:29;;;;;;;9.27;5.43;;;17.00;65.10;;;;;;10170656;29;20211;-92
2022/04/27 12:24:43;;;;;;;6.97;5.33;;;17.20;57.30;;;;;;10195077;29;20220;-94
2022/04/27 12:29:46;;;;;;;6.90;5.33;;;17.50;64.20;;;;;;10175415;29;20274;-94
2022/04/27 12:40:14;;;;;;;14.07;5.03;;;17.70;63.90;;;;;;10175612;29;20247;-95
2022/04/27 12:45:16;;;;;;;10.20;6.30;;;17.60;58.70;;;;;;10175635;29;20690;-94
2022/04/27 12:50:19;;;;;;;8.60;5.67;;;17.50;57.40;;;;;;10178521;29;20236;-94
2022/04/27 12:55:22;;;;;;;7.47;5.60;;;17.40;64.90;;;;;;10199116;29;20236;-93
2022/04/27 13:00:38;;;;;;;7.73;5.90;;;17.30;65.10;;;;;;10199045;29;20620;-95
2022/04/27 13:05:43;;;;;;;9.03;5.67;;;17.20;65.90;;;;;;10198911;29;20206;-94
2022/04/27 13:16:08;;;;;;;6.73;5.33;;;17.00;56.20;;;;;;10217026;29;20273;-94
2022/04/27 13:21:11;;;;;;;6.90;5.13;;;17.00;55.80;;;;;;10197939;29;20247;-93
2022/04/27 13:26:13;;;;;;;6.37;5.20;;;17.10;59.60;;;;;;10197012;29;20219;-94
2022/04/27 13:31:16;;;;;;;6.27;5.50;;;17.30;62.90;;;;;;10197285;29;20218;-94
2022/04/27 13:36:18;;;;;;;7.47;5.90;;;17.50;62.00;;;;;;10196319;29;20266;-93
2022/04/27 13:41:21;;;;;;;7.20;5.17;;;17.40;62.20;;;;;;10181448;29;20266;-94
2022/04/27 13:46:30;;;;;;;6.70;5.10;;;17.40;54.50;;;;;;10197156;29;20250;-94
2022/04/27 13:51:33;;;;;;;9.87;5.80;;;17.20;62.20;;;;;;10186377;29;20238;-95
2022/04/27 13:56:37;;;;;;;6.57;5.27;;;17.20;55.90;;;;;;10196725;29;20242;-95
2022/04/27 14:01:40;;;;;;;8.03;5.73;;;17.10;65.10;;;;;;10221488;29;20211;-94
2022/04/27 14:06:45;;;;;;;7.10;5.37;;;16.60;53.10;;;;;;10246850;29;20206;-96
2022/04/27 14:22:30;;;;;;;13.37;6.17;;;16.50;56.80;;;;;;10234827;29;20238;-84
2022/04/27 14:27:33;;;;;;;9.87;5.30;;;16.00;55.60;;;;;;10248690;29;20210;-85
2022/04/27 14:32:35;;;;;;;11.73;6.50;;;15.70;54.90;;;;;;10248465;29;20262;-88
2022/04/27 14:37:38;;;;;;;12.30;6.17;;;16.00;57.40;;;;;;10248936;28;20292;-83
2022/04/27 14:42:41;;;;;;;6.80;5.17;;;16.00;57.30;;;;;;10251085;28;20579;-85
2022/04/27 14:47:44;;;;;;;11.53;5.30;;;16.20;55.80;;;;;;10251470;29;20207;-85
2022/04/27 14:52:47;;;;;;;6.57;4.03;;;16.30;55.90;;;;;;10214018;29;20240;-84
2022/04/27 14:57:49;;;;;;;7.53;5.33;;;16.30;58.20;;;;;;10223602;28;20206;-84
2022/04/27 15:02:52;;;;;;;7.63;6.03;;;16.30;56.60;;;;;;10296332;28;20237;-83
2022/04/27 15:07:54;;;;;;;13.03;5.73;;;16.60;55.40;;;;;;10340889;28;20194;-85
2022/04/27 15:12:57;;;;;;;10.00;6.30;;;16.60;55.60;;;;;;10305811;28;20209;-85
2022/04/27 15:17:59;;;;;;;13.03;5.73;;;16.30;55.10;;;;;;10300494;28;20191;-84
2022/04/27 15:23:02;;;;;;;25.47;6.43;;;16.50;57.40;;;;;;10300174;28;20225;-85
2022/04/27 15:28:05;;;;;;;13.27;5.50;;;16.50;57.80;;;;;;10325357;28;20319;-84
2022/04/27 15:33:08;;;;;;;10.47;5.47;;;16.20;59.30;;;;;;10300668;28;20213;-84
2022/04/27 15:38:10;;;;;;;22.60;6.67;;;16.20;60.80;;;;;;10316697;28;20215;-84
2022/04/27 15:43:13;;;;;;;3.27;2.93;;;16.50;57.40;;;;;;10296124;28;20209;-84
2022/04/27 15:48:28;;;;;;;4.13;3.73;;;16.80;62.50;;;;;;10318438;28;20213;-85
2022/04/27 15:53:31;;;;;;;6.27;3.80;;;16.90;62.20;;;;;;10311295;28;20226;-84
2022/04/27 15:58:34;;;;;;;3.07;2.47;;;17.30;61.70;;;;;;10327553;28;20222;-84
2022/04/27 16:03:38;;;;;;;5.00;4.17;;;17.40;62.10;;;;;;10325940;28;20189;-84
2022/04/27 16:08:41;;;;;;;12.07;6.30;;;17.40;61.20;;;;;;10325380;28;20187;-83
2022/04/27 16:13:43;;;;;;;4.20;3.00;;;17.30;58.30;;;;;;10327194;28;20232;-84
2022/04/27 16:18:47;;;;;;;3.83;2.77;;;17.40;61.70;;;;;;10277598;28;20206;-84
2022/04/27 16:23:50;;;;;;;17.83;5.97;;;17.60;61.90;;;;;;10273733;28;20217;-86
2022/04/27 16:28:55;;;;;;;12.43;6.43;;;17.40;55.90;;;;;;10296894;28;20209;-86
2022/04/27 16:33:57;;;;;;;7.10;5.03;;;17.30;58.30;;;;;;10302619;28;20222;-86
2022/04/27 16:39:01;;;;;;;19.83;7.40;;;17.10;61.00;;;;;;10284902;28;20203;-86
2022/04/27 16:44:03;;;;;;;12.00;5.13;;;16.90;59.40;;;;;;10302397;28;20205;-86
2022/04/27 16:49:06;;;;;;;6.70;3.63;;;16.80;61.00;;;;;;10263234;28;20590;-85
2022/04/27 16:54:09;;;;;;;17.80;6.60;;;16.80;64.10;;;;;;10283210;28;20601;-84
2022/04/27 16:59:11;;;;;;;9.73;7.23;;;15.50;61.50;;;;;;10286429;28;20214;-84
2022/04/27 17:04:14;;;;;;;9.63;5.93;;;14.70;68.30;;;;;;10259123;28;20207;-84
2022/04/27 17:09:16;;;;;;;15.57;5.53;;;14.50;65.30;;;;;;10295851;28;20213;-84
2022/04/27 17:14:21;;;;;;;9.80;6.00;;;14.70;74.80;;;;;;10217130;29;20229;-84
2022/04/27 17:19:24;;;;;;;6.70;4.53;;;14.90;74.40;;;;;;10257906;29;20206;-87
2022/04/27 17:24:26;;;;;;;9.13;4.60;;;14.90;79.00;;;;;;10259619;29;20267;-84
2022/04/27 17:29:28;;;;;;;29.53;10.23;;;15.10;77.40;;;;;;10259024;28;20206;-84
2022/04/27 17:34:31;;;;;;;10.73;6.50;;;15.10;76.70;;;;;;10255964;29;20264;-87
2022/04/27 17:39:34;;;;;;;11.17;7.37;;;14.90;77.20;;;;;;10254603;29;20211;-87
2022/04/27 17:44:36;;;;;;;14.17;8.13;;;14.70;75.80;;;;;;10256605;28;20269;-87
2022/04/27 17:49:40;;;;;;;10.33;6.90;;;14.30;73.90;;;;;;10236594;29;20329;-86
2022/04/27 17:54:42;;;;;;;10.90;5.40;;;14.30;78.40;;;;;;10250586;29;20796;-86
2022/04/27 17:59:45;;;;;;;14.13;8.87;;;14.20;78.90;;;;;;10250144;28;20392;-86
2022/04/27 18:04:47;;;;;;;18.20;7.67;;;14.00;78.20;;;;;;10249991;29;20217;-86
2022/04/27 18:09:50;;;;;;;18.40;8.60;;;13.90;78.50;;;;;;10233791;29;20246;-86
2022/04/27 18:14:53;;;;;;;14.17;6.17;;;13.90;79.80;;;;;;10261638;28;20640;-88
2022/04/27 18:19:56;;;;;;;50.67;17.80;;;14.00;81.20;;;;;;10248200;28;20289;-88
2022/04/27 18:24:59;;;;;;;45.70;17.20;;;13.90;76.10;;;;;;10249778;29;20266;-85
2022/04/27 18:30:02;;;;;;;46.63;16.43;;;13.50;75.40;;;;;;10254486;28;20657;-85
2022/04/27 18:35:06;;;;;;;19.00;7.90;;;13.40;78.10;;;;;;10289124;28;20253;-85
2022/04/27 18:50:45;;;;;;;6.70;4.63;;;13.70;84.00;;;;;;12821698;22;1447869;-86
2022/04/27 18:55:47;;;;;;;16.10;5.60;;;13.90;84.40;;;;;;12758057;23;20237;-86
2022/04/27 19:00:50;;;;;;;44.40;16.73;;;14.10;83.70;;;;;;12782458;23;20569;-86
2022/04/27 19:05:53;;;;;;;52.43;19.33;;;14.30;78.00;;;;;;12802241;23;20167;-86
2022/04/27 19:10:56;;;;;;;28.80;13.73;;;13.90;74.70;;;;;;12809742;23;20222;-87
2022/04/27 19:16:00;;;;;;;5.47;3.50;;;13.90;74.30;;;;;;12783135;23;20246;-86
2022/04/27 19:21:03;;;;;;;5.90;3.63;;;15.00;80.40;;;;;;12783735;23;20513;-86
2022/04/27 19:26:06;;;;;;;13.37;8.23;;;16.40;76.40;;;;;;12817316;23;20233;-85
2022/04/27 19:31:08;;;;;;;17.20;8.20;;;16.10;69.50;;;;;;12810799;23;20167;-86
2022/04/27 19:36:11;;;;;;;12.70;7.20;;;16.40;68.20;;;;;;12810643;23;20219;-86
2022/04/27 19:41:14;;;;;;;16.93;7.70;;;16.50;68.30;;;;;;12782963;23;20179;-86
2022/04/27 19:46:17;;;;;;;10.13;7.93;;;16.70;67.60;;;;;;12809483;23;20168;-86
2022/04/27 19:51:21;;;;;;;11.47;6.87;;;16.40;68.00;;;;;;12769510;23;20699;-86
2022/04/27 19:56:23;;;;;;;9.33;7.10;;;16.30;67.80;;;;;;12774756;23;20185;-87
2022/04/27 20:01:27;;;;;;;10.73;7.63;;;15.60;71.10;;;;;;12795403;23;20556;-87
2022/04/27 20:06:32;;;;;;;23.40;7.73;;;16.00;69.30;;;;;;12767556;23;20587;-86
2022/04/27 20:11:36;;;;;;;11.73;7.17;;;15.40;70.80;;;;;;12795179;23;20172;-86
2022/04/27 20:16:38;;;;;;;8.83;6.40;;;15.00;72.60;;;;;;12767725;23;20209;-87
2022/04/27 20:21:41;;;;;;;9.00;6.90;;;15.20;73.10;;;;;;12793184;23;20168;-87
2022/04/27 20:26:44;;;;;;;16.43;9.50;;;14.70;74.40;;;;;;12767350;23;20184;-87
2022/04/27 20:31:46;;;;;;;15.40;9.17;;;14.20;74.30;;;;;;12792101;23;20607;-87
2022/04/27 20:36:49;;;;;;;18.93;10.30;;;14.00;76.50;;;;;;12792345;23;20187;-88
2022/04/27 20:41:52;;;;;;;7.90;6.63;;;13.40;79.20;;;;;;12793403;23;20226;-87
2022/04/27 20:46:55;;;;;;;13.73;8.73;;;13.30;79.80;;;;;;12793246;23;20168;-86
2022/04/27 20:52:12;;;;;;;13.87;7.93;;;14.10;77.80;;;;;;12767859;23;20248;-86
2022/04/27 20:57:19;;;;;;;17.10;9.47;;;13.70;78.80;;;;;;12766438;23;20255;-88
2022/04/27 21:02:22;;;;;;;9.80;7.20;;;13.20;78.20;;;;;;12781884;23;20222;-88
2022/04/27 21:07:25;;;;;;;9.93;7.63;;;13.10;80.50;;;;;;12767078;23;20226;-88
2022/04/27 21:12:28;;;;;;;13.13;9.13;;;13.40;79.20;;;;;;12792820;23;20176;-87
2022/04/27 21:17:31;;;;;;;9.67;6.67;;;12.80;77.50;;;;;;12792772;23;20191;-88
2022/04/27 21:22:33;;;;;;;7.67;5.77;;;12.90;88.20;;;;;;12766646;23;20191;-87
2022/04/27 21:27:36;;;;;;;10.63;7.63;;;13.30;87.40;;;;;;12791760;23;20172;-87
2022/04/27 21:32:38;;;;;;;17.70;12.03;;;13.80;85.60;;;;;;12765165;23;20647;-87
2022/04/27 21:37:41;;;;;;;20.43;12.57;;;13.20;84.30;;;;;;12791512;23;20192;-87
2022/04/27 21:42:43;;;;;;;12.50;8.07;;;12.00;82.90;;;;;;12765639;23;20861;-87
2022/04/27 21:47:46;;;;;;;9.60;5.97;;;12.70;83.70;;;;;;12765046;23;20180;-87
2022/04/27 21:52:49;;;;;;;10.67;7.00;;;13.30;83.10;;;;;;12766061;23;20204;-87
2022/04/27 21:57:52;;;;;;;10.13;6.40;;;13.00;83.10;;;;;;12765535;23;20196;-87
2022/04/27 22:02:55;;;;;;;7.73;5.97;;;13.40;82.60;;;;;;12765153;23;20242;-87
2022/04/27 22:07:57;;;;;;;10.37;6.83;;;12.90;83.20;;;;;;12792588;23;20226;-87
2022/04/27 22:13:00;;;;;;;6.90;6.03;;;13.50;82.30;;;;;;12765415;23;20559;-87
2022/04/27 22:18:02;;;;;;;6.93;5.87;;;13.50;82.00;;;;;;12766990;23;20566;-87
2022/04/27 22:23:05;;;;;;;16.13;11.07;;;14.20;80.30;;;;;;12765710;23;20503;-87
2022/04/27 22:28:07;;;;;;;10.57;7.87;;;14.40;77.70;;;;;;12793176;23;20199;-87
2022/04/27 22:33:11;;;;;;;18.13;10.50;;;14.20;79.00;;;;;;12792904;23;20558;-87
2022/04/27 22:38:14;;;;;;;15.60;9.53;;;13.60;78.20;;;;;;12791249;23;20263;-87
2022/04/27 22:43:17;;;;;;;18.80;11.40;;;13.50;81.40;;;;;;12809935;23;20547;-87
2022/04/27 22:48:19;;;;;;;7.17;5.70;;;13.00;82.10;;;;;;12765423;23;20709;-87
2022/04/27 22:53:22;;;;;;;10.83;6.47;;;13.20;83.00;;;;;;12793069;23;20197;-87
2022/04/27 22:58:25;;;;;;;10.07;5.80;;;13.50;82.20;;;;;;12808772;23;20193;-87
2022/04/27 23:03:27;;;;;;;15.40;8.40;;;13.80;81.50;;;;;;12764618;23;20496;-88
2022/04/27 23:13:53;;;;;;;16.73;10.37;;;13.20;83.00;;;;;;12764512;23;20238;-87
2022/04/27 23:18:59;;;;;;;17.73;11.80;;;12.70;83.40;;;;;;12791687;23;20191;-87
2022/04/27 23:24:02;;;;;;;12.20;7.43;;;11.90;85.50;;;;;;12767015;23;20230;-87
2022/04/27 23:29:06;;;;;;;7.10;5.87;;;12.00;89.40;;;;;;12787073;23;20167;-88
2022/04/27 23:34:09;;;;;;;12.13;9.30;;;12.30;87.90;;;;;;12767838;23;20203;-87
2022/04/27 23:39:11;;;;;;;7.30;6.17;;;12.40;86.40;;;;;;12795055;23;20184;-87
2022/04/27 23:44:13;;;;;;;8.10;6.47;;;12.50;87.50;;;;;;12795435;23;20164;-86
2022/04/27 23:49:17;;;;;;;6.77;5.03;;;13.10;85.80;;;;;;12795359;23;20191;-87
2022/04/27 23:54:20;;;;;;;6.93;5.27;;;13.80;82.70;;;;;;12794976;23;20233;-87
2022/04/27 23:59:23;;;;;;;7.47;5.60;;;14.10;81.10;;;;;;12767932;23;20222;-86
